sensor_id;sensor_type;location;lat;lon;timestamp;P1;durP1;ratioP1;P2;durP2;ratioP2
20657;SDS011;10488;50.846;4.078;2022-08-19T00:01:21;32.88;;;26.33;;
20657;SDS011;10488;50.846;4.078;2022-08-19T00:03:47;33.13;;;25.65;;
20657;SDS011;10488;50.846;4.078;2022-08-19T00:06:13;34.72;;;26.17;;
20657;SDS011;10488;50.846;4.078;2022-08-19T00:08:39;32.92;;;27.35;;
20657;SDS011;10488;50.846;4.078;2022-08-19T00:11:05;39.72;;;30.48;;
20657;SDS011;10488;50.846;4.078;2022-08-19T00:13:32;38.22;;;28.65;;
20657;SDS011;10488;50.846;4.078;2022-08-19T00:15:58;37.97;;;29.13;;
20657;SDS011;10488;50.846;4.078;2022-08-19T00:18:25;37.40;;;29.85;;
20657;SDS011;10488;50.846;4.078;2022-08-19T00:20:51;36.78;;;29.90;;
20657;SDS011;10488;50.846;4.078;2022-08-19T00:23:17;34.20;;;27.70;;
20657;SDS011;10488;50.846;4.078;2022-08-19T00:25:43;38.30;;;29.77;;
20657;SDS011;10488;50.846;4.078;2022-08-19T00:28:09;38.00;;;29.85;;
20657;SDS011;10488;50.846;4.078;2022-08-19T00:30:35;41.53;;;29.60;;
20657;SDS011;10488;50.846;4.078;2022-08-19T00:33:01;42.20;;;30.35;;
20657;SDS011;10488;50.846;4.078;2022-08-19T00:35:27;39.65;;;31.63;;
20657;SDS011;10488;50.846;4.078;2022-08-19T00:37:53;38.50;;;31.30;;
20657;SDS011;10488;50.846;4.078;2022-08-19T00:40:19;39.53;;;32.20;;
20657;SDS011;10488;50.846;4.078;2022-08-19T00:42:45;44.85;;;33.10;;
20657;SDS011;10488;50.846;4.078;2022-08-19T00:45:13;44.45;;;33.42;;
20657;SDS011;10488;50.846;4.078;2022-08-19T00:47:42;45.28;;;34.67;;
20657;SDS011;10488;50.846;4.078;2022-08-19T00:50:08;46.03;;;34.25;;
20657;SDS011;10488;50.846;4.078;2022-08-19T00:52:38;48.17;;;36.08;;
20657;SDS011;10488;50.846;4.078;2022-08-19T00:55:09;50.38;;;36.33;;
20657;SDS011;10488;50.846;4.078;2022-08-19T00:57:37;53.05;;;36.55;;
20657;SDS011;10488;50.846;4.078;2022-08-19T01:00:07;48.03;;;35.63;;
20657;SDS011;10488;50.846;4.078;2022-08-19T01:02:38;50.08;;;34.55;;
20657;SDS011;10488;50.846;4.078;2022-08-19T01:05:06;50.58;;;35.50;;
20657;SDS011;10488;50.846;4.078;2022-08-19T01:07:35;46.55;;;33.90;;
20657;SDS011;10488;50.846;4.078;2022-08-19T01:10:04;51.03;;;34.47;;
20657;SDS011;10488;50.846;4.078;2022-08-19T01:12:32;44.45;;;34.05;;
20657;SDS011;10488;50.846;4.078;2022-08-19T01:14:59;41.58;;;31.35;;
20657;SDS011;10488;50.846;4.078;2022-08-19T01:17:25;46.08;;;32.80;;
20657;SDS011;10488;50.846;4.078;2022-08-19T01:19:52;42.20;;;32.20;;
20657;SDS011;10488;50.846;4.078;2022-08-19T01:24:49;44.75;;;33.28;;
20657;SDS011;10488;50.846;4.078;2022-08-19T01:27:16;43.67;;;31.52;;
20657;SDS011;10488;50.846;4.078;2022-08-19T01:29:42;44.03;;;31.58;;
20657;SDS011;10488;50.846;4.078;2022-08-19T01:32:11;42.33;;;30.50;;
20657;SDS011;10488;50.846;4.078;2022-08-19T01:34:41;42.83;;;30.58;;
20657;SDS011;10488;50.846;4.078;2022-08-19T01:37:09;44.30;;;32.78;;
20657;SDS011;10488;50.846;4.078;2022-08-19T01:39:37;44.58;;;31.60;;
20657;SDS011;10488;50.846;4.078;2022-08-19T01:42:04;46.00;;;32.67;;
20657;SDS011;10488;50.846;4.078;2022-08-19T01:44:32;45.33;;;33.13;;
20657;SDS011;10488;50.846;4.078;2022-08-19T01:46:58;51.13;;;34.67;;
20657;SDS011;10488;50.846;4.078;2022-08-19T01:49:24;50.42;;;35.17;;
20657;SDS011;10488;50.846;4.078;2022-08-19T01:51:51;45.58;;;34.30;;
20657;SDS011;10488;50.846;4.078;2022-08-19T01:54:19;51.30;;;35.38;;
20657;SDS011;10488;50.846;4.078;2022-08-19T01:56:46;55.13;;;35.20;;
20657;SDS011;10488;50.846;4.078;2022-08-19T01:59:17;46.80;;;34.90;;
20657;SDS011;10488;50.846;4.078;2022-08-19T02:01:45;47.88;;;34.03;;
20657;SDS011;10488;50.846;4.078;2022-08-19T02:04:11;48.08;;;31.88;;
20657;SDS011;10488;50.846;4.078;2022-08-19T02:06:37;46.90;;;33.90;;
20657;SDS011;10488;50.846;4.078;2022-08-19T02:09:03;47.08;;;32.97;;
20657;SDS011;10488;50.846;4.078;2022-08-19T02:11:31;46.28;;;33.10;;
20657;SDS011;10488;50.846;4.078;2022-08-19T02:13:59;50.00;;;32.55;;
20657;SDS011;10488;50.846;4.078;2022-08-19T02:16:27;47.38;;;32.10;;
20657;SDS011;10488;50.846;4.078;2022-08-19T02:18:53;45.92;;;32.22;;
20657;SDS011;10488;50.846;4.078;2022-08-19T02:21:20;44.03;;;31.80;;
20657;SDS011;10488;50.846;4.078;2022-08-19T02:23:47;48.45;;;33.47;;
20657;SDS011;10488;50.846;4.078;2022-08-19T02:26:13;51.20;;;33.17;;
20657;SDS011;10488;50.846;4.078;2022-08-19T02:28:39;47.58;;;32.38;;
20657;SDS011;10488;50.846;4.078;2022-08-19T02:31:12;46.72;;;31.73;;
20657;SDS011;10488;50.846;4.078;2022-08-19T02:33:40;50.95;;;31.75;;
20657;SDS011;10488;50.846;4.078;2022-08-19T02:36:07;48.78;;;31.45;;
20657;SDS011;10488;50.846;4.078;2022-08-19T02:38:33;47.42;;;31.65;;
20657;SDS011;10488;50.846;4.078;2022-08-19T02:41:04;45.20;;;29.60;;
20657;SDS011;10488;50.846;4.078;2022-08-19T02:43:32;55.35;;;31.63;;
20657;SDS011;10488;50.846;4.078;2022-08-19T02:46:10;50.35;;;31.27;;
20657;SDS011;10488;50.846;4.078;2022-08-19T02:48:56;46.15;;;31.08;;
20657;SDS011;10488;50.846;4.078;2022-08-19T02:51:27;49.80;;;31.55;;
20657;SDS011;10488;50.846;4.078;2022-08-19T02:53:54;48.78;;;31.60;;
20657;SDS011;10488;50.846;4.078;2022-08-19T02:56:21;51.17;;;32.22;;
20657;SDS011;10488;50.846;4.078;2022-08-19T02:58:49;44.65;;;29.70;;
20657;SDS011;10488;50.846;4.078;2022-08-19T03:01:25;41.70;;;28.30;;
20657;SDS011;10488;50.846;4.078;2022-08-19T03:03:53;42.38;;;29.65;;
20657;SDS011;10488;50.846;4.078;2022-08-19T03:06:20;49.00;;;30.30;;
20657;SDS011;10488;50.846;4.078;2022-08-19T03:08:47;46.13;;;28.98;;
20657;SDS011;10488;50.846;4.078;2022-08-19T03:11:18;51.10;;;30.88;;
20657;SDS011;10488;50.846;4.078;2022-08-19T03:13:46;46.88;;;28.60;;
20657;SDS011;10488;50.846;4.078;2022-08-19T03:16:17;48.95;;;27.40;;
20657;SDS011;10488;50.846;4.078;2022-08-19T03:18:44;43.28;;;28.38;;
20657;SDS011;10488;50.846;4.078;2022-08-19T03:21:13;45.70;;;28.02;;
20657;SDS011;10488;50.846;4.078;2022-08-19T03:23:42;44.17;;;26.73;;
20657;SDS011;10488;50.846;4.078;2022-08-19T03:26:09;44.25;;;27.83;;
20657;SDS011;10488;50.846;4.078;2022-08-19T03:28:34;37.92;;;25.77;;
20657;SDS011;10488;50.846;4.078;2022-08-19T03:31:03;45.85;;;27.35;;
20657;SDS011;10488;50.846;4.078;2022-08-19T03:33:32;42.88;;;26.48;;
20657;SDS011;10488;50.846;4.078;2022-08-19T03:35:59;44.63;;;26.17;;
20657;SDS011;10488;50.846;4.078;2022-08-19T03:38:40;45.65;;;26.55;;
20657;SDS011;10488;50.846;4.078;2022-08-19T03:41:14;43.95;;;25.38;;
20657;SDS011;10488;50.846;4.078;2022-08-19T03:43:42;44.65;;;24.42;;
20657;SDS011;10488;50.846;4.078;2022-08-19T03:46:10;45.72;;;25.05;;
20657;SDS011;10488;50.846;4.078;2022-08-19T03:48:39;42.33;;;25.33;;
20657;SDS011;10488;50.846;4.078;2022-08-19T03:51:06;46.28;;;24.77;;
20657;SDS011;10488;50.846;4.078;2022-08-19T03:53:33;41.95;;;25.08;;
20657;SDS011;10488;50.846;4.078;2022-08-19T03:56:00;46.42;;;24.55;;
20657;SDS011;10488;50.846;4.078;2022-08-19T03:58:27;38.88;;;23.95;;
20657;SDS011;10488;50.846;4.078;2022-08-19T04:00:55;44.60;;;25.80;;
20657;SDS011;10488;50.846;4.078;2022-08-19T04:03:22;40.22;;;24.35;;
20657;SDS011;10488;50.846;4.078;2022-08-19T04:05:49;44.75;;;25.63;;
20657;SDS011;10488;50.846;4.078;2022-08-19T04:08:15;41.85;;;24.30;;
20657;SDS011;10488;50.846;4.078;2022-08-19T04:10:44;41.85;;;23.92;;
20657;SDS011;10488;50.846;4.078;2022-08-19T04:13:09;41.88;;;24.23;;
20657;SDS011;10488;50.846;4.078;2022-08-19T04:15:39;39.40;;;23.05;;
20657;SDS011;10488;50.846;4.078;2022-08-19T04:18:07;41.38;;;24.40;;
20657;SDS011;10488;50.846;4.078;2022-08-19T04:20:43;42.35;;;23.85;;
20657;SDS011;10488;50.846;4.078;2022-08-19T04:23:11;43.47;;;24.08;;
20657;SDS011;10488;50.846;4.078;2022-08-19T04:25:38;42.55;;;23.20;;
20657;SDS011;10488;50.846;4.078;2022-08-19T04:28:05;38.35;;;23.98;;
20657;SDS011;10488;50.846;4.078;2022-08-19T04:30:37;38.92;;;22.50;;
20657;SDS011;10488;50.846;4.078;2022-08-19T04:33:07;39.58;;;22.88;;
20657;SDS011;10488;50.846;4.078;2022-08-19T04:35:37;39.83;;;21.80;;
20657;SDS011;10488;50.846;4.078;2022-08-19T04:38:04;40.88;;;22.92;;
20657;SDS011;10488;50.846;4.078;2022-08-19T04:40:30;38.13;;;22.85;;
20657;SDS011;10488;50.846;4.078;2022-08-19T04:43:14;45.25;;;23.52;;
20657;SDS011;10488;50.846;4.078;2022-08-19T04:45:42;33.53;;;20.63;;
20657;SDS011;10488;50.846;4.078;2022-08-19T04:48:08;40.60;;;21.08;;
20657;SDS011;10488;50.846;4.078;2022-08-19T04:50:34;36.28;;;20.98;;
20657;SDS011;10488;50.846;4.078;2022-08-19T04:53:00;41.25;;;22.20;;
20657;SDS011;10488;50.846;4.078;2022-08-19T04:55:26;32.05;;;20.40;;
20657;SDS011;10488;50.846;4.078;2022-08-19T04:57:52;38.22;;;21.38;;
20657;SDS011;10488;50.846;4.078;2022-08-19T05:00:18;39.53;;;19.83;;
20657;SDS011;10488;50.846;4.078;2022-08-19T05:02:44;50.92;;;22.17;;
20657;SDS011;10488;50.846;4.078;2022-08-19T05:05:10;34.05;;;20.20;;
20657;SDS011;10488;50.846;4.078;2022-08-19T05:07:35;35.78;;;20.27;;
20657;SDS011;10488;50.846;4.078;2022-08-19T05:10:02;38.20;;;20.67;;
20657;SDS011;10488;50.846;4.078;2022-08-19T05:12:30;36.85;;;19.52;;
20657;SDS011;10488;50.846;4.078;2022-08-19T05:14:56;42.47;;;20.35;;
20657;SDS011;10488;50.846;4.078;2022-08-19T05:17:23;40.22;;;19.75;;
20657;SDS011;10488;50.846;4.078;2022-08-19T05:19:52;36.40;;;20.02;;
20657;SDS011;10488;50.846;4.078;2022-08-19T05:22:37;41.30;;;21.58;;
20657;SDS011;10488;50.846;4.078;2022-08-19T05:25:04;35.58;;;20.15;;
20657;SDS011;10488;50.846;4.078;2022-08-19T05:27:32;32.80;;;20.45;;
20657;SDS011;10488;50.846;4.078;2022-08-19T05:29:57;36.60;;;20.15;;
20657;SDS011;10488;50.846;4.078;2022-08-19T05:32:24;32.65;;;19.58;;
20657;SDS011;10488;50.846;4.078;2022-08-19T05:34:50;35.47;;;21.27;;
20657;SDS011;10488;50.846;4.078;2022-08-19T05:37:15;28.92;;;19.55;;
20657;SDS011;10488;50.846;4.078;2022-08-19T05:39:42;27.60;;;19.52;;
20657;SDS011;10488;50.846;4.078;2022-08-19T05:42:09;24.50;;;16.70;;
20657;SDS011;10488;50.846;4.078;2022-08-19T05:44:38;21.08;;;14.63;;
20657;SDS011;10488;50.846;4.078;2022-08-19T05:47:09;30.13;;;14.88;;
20657;SDS011;10488;50.846;4.078;2022-08-19T05:49:36;19.33;;;13.50;;
20657;SDS011;10488;50.846;4.078;2022-08-19T05:52:03;21.05;;;13.35;;
20657;SDS011;10488;50.846;4.078;2022-08-19T05:54:30;21.35;;;13.15;;
20657;SDS011;10488;50.846;4.078;2022-08-19T05:56:56;17.73;;;13.52;;
20657;SDS011;10488;50.846;4.078;2022-08-19T05:59:22;17.85;;;11.77;;
20657;SDS011;10488;50.846;4.078;2022-08-19T06:01:48;17.02;;;10.93;;
20657;SDS011;10488;50.846;4.078;2022-08-19T06:04:16;17.13;;;11.93;;
20657;SDS011;10488;50.846;4.078;2022-08-19T06:06:48;15.32;;;10.52;;
20657;SDS011;10488;50.846;4.078;2022-08-19T06:09:16;16.92;;;10.55;;
20657;SDS011;10488;50.846;4.078;2022-08-19T06:11:48;16.30;;;9.95;;
20657;SDS011;10488;50.846;4.078;2022-08-19T06:14:23;14.52;;;9.38;;
20657;SDS011;10488;50.846;4.078;2022-08-19T06:16:51;16.20;;;10.00;;
20657;SDS011;10488;50.846;4.078;2022-08-19T06:19:17;14.57;;;10.02;;
20657;SDS011;10488;50.846;4.078;2022-08-19T06:21:46;17.13;;;10.82;;
20657;SDS011;10488;50.846;4.078;2022-08-19T06:24:14;15.50;;;10.68;;
20657;SDS011;10488;50.846;4.078;2022-08-19T06:26:43;18.42;;;11.27;;
20657;SDS011;10488;50.846;4.078;2022-08-19T06:29:11;20.20;;;12.15;;
20657;SDS011;10488;50.846;4.078;2022-08-19T06:31:42;18.42;;;11.77;;
20657;SDS011;10488;50.846;4.078;2022-08-19T06:34:10;22.13;;;11.77;;
20657;SDS011;10488;50.846;4.078;2022-08-19T06:36:40;16.60;;;11.98;;
20657;SDS011;10488;50.846;4.078;2022-08-19T06:39:13;19.13;;;11.82;;
20657;SDS011;10488;50.846;4.078;2022-08-19T06:41:43;17.73;;;10.80;;
20657;SDS011;10488;50.846;4.078;2022-08-19T06:44:10;16.13;;;11.05;;
20657;SDS011;10488;50.846;4.078;2022-08-19T06:46:37;16.75;;;10.50;;
20657;SDS011;10488;50.846;4.078;2022-08-19T06:49:03;18.88;;;10.50;;
20657;SDS011;10488;50.846;4.078;2022-08-19T06:51:29;19.17;;;10.32;;
20657;SDS011;10488;50.846;4.078;2022-08-19T06:53:57;17.52;;;9.95;;
20657;SDS011;10488;50.846;4.078;2022-08-19T06:56:25;21.83;;;10.20;;
20657;SDS011;10488;50.846;4.078;2022-08-19T06:58:59;19.95;;;10.68;;
20657;SDS011;10488;50.846;4.078;2022-08-19T07:01:36;20.15;;;10.23;;
20657;SDS011;10488;50.846;4.078;2022-08-19T07:04:05;17.33;;;9.98;;
20657;SDS011;10488;50.846;4.078;2022-08-19T07:06:32;15.32;;;9.70;;
20657;SDS011;10488;50.846;4.078;2022-08-19T07:08:58;17.33;;;9.30;;
20657;SDS011;10488;50.846;4.078;2022-08-19T07:11:24;20.15;;;9.68;;
20657;SDS011;10488;50.846;4.078;2022-08-19T07:13:49;15.27;;;7.93;;
20657;SDS011;10488;50.846;4.078;2022-08-19T07:16:17;14.00;;;8.55;;
20657;SDS011;10488;50.846;4.078;2022-08-19T07:18:47;16.73;;;9.18;;
20657;SDS011;10488;50.846;4.078;2022-08-19T07:21:21;18.23;;;9.27;;
20657;SDS011;10488;50.846;4.078;2022-08-19T07:23:52;16.52;;;8.52;;
20657;SDS011;10488;50.846;4.078;2022-08-19T07:26:29;16.80;;;9.05;;
20657;SDS011;10488;50.846;4.078;2022-08-19T07:28:57;17.13;;;9.25;;
20657;SDS011;10488;50.846;4.078;2022-08-19T07:31:24;19.92;;;9.52;;
20657;SDS011;10488;50.846;4.078;2022-08-19T07:33:51;16.80;;;10.45;;
20657;SDS011;10488;50.846;4.078;2022-08-19T07:36:22;18.45;;;9.10;;
20657;SDS011;10488;50.846;4.078;2022-08-19T07:38:50;18.35;;;9.27;;
20657;SDS011;10488;50.846;4.078;2022-08-19T07:41:23;17.65;;;8.57;;
20657;SDS011;10488;50.846;4.078;2022-08-19T07:43:50;19.35;;;11.35;;
20657;SDS011;10488;50.846;4.078;2022-08-19T07:46:17;22.85;;;10.38;;
20657;SDS011;10488;50.846;4.078;2022-08-19T07:48:45;18.98;;;9.93;;
20657;SDS011;10488;50.846;4.078;2022-08-19T07:51:12;16.92;;;9.60;;
20657;SDS011;10488;50.846;4.078;2022-08-19T07:53:40;16.33;;;9.45;;
20657;SDS011;10488;50.846;4.078;2022-08-19T07:56:06;19.10;;;10.05;;
20657;SDS011;10488;50.846;4.078;2022-08-19T07:58:33;14.88;;;9.13;;
20657;SDS011;10488;50.846;4.078;2022-08-19T08:01:02;20.48;;;9.20;;
20657;SDS011;10488;50.846;4.078;2022-08-19T08:03:30;16.17;;;8.30;;
20657;SDS011;10488;50.846;4.078;2022-08-19T08:06:15;11.50;;;7.38;;
20657;SDS011;10488;50.846;4.078;2022-08-19T08:09:03;13.18;;;7.95;;
20657;SDS011;10488;50.846;4.078;2022-08-19T08:11:42;18.33;;;8.07;;
20657;SDS011;10488;50.846;4.078;2022-08-19T08:14:14;12.05;;;8.13;;
20657;SDS011;10488;50.846;4.078;2022-08-19T08:16:42;17.13;;;8.23;;
20657;SDS011;10488;50.846;4.078;2022-08-19T08:19:09;14.07;;;8.07;;
20657;SDS011;10488;50.846;4.078;2022-08-19T08:21:35;14.40;;;7.65;;
20657;SDS011;10488;50.846;4.078;2022-08-19T08:24:01;17.00;;;7.90;;
20657;SDS011;10488;50.846;4.078;2022-08-19T08:26:27;13.25;;;8.38;;
20657;SDS011;10488;50.846;4.078;2022-08-19T08:28:53;13.20;;;7.25;;
20657;SDS011;10488;50.846;4.078;2022-08-19T08:31:19;14.63;;;8.57;;
20657;SDS011;10488;50.846;4.078;2022-08-19T08:33:45;12.88;;;7.18;;
20657;SDS011;10488;50.846;4.078;2022-08-19T08:36:12;10.38;;;6.85;;
20657;SDS011;10488;50.846;4.078;2022-08-19T08:38:39;11.05;;;6.53;;
20657;SDS011;10488;50.846;4.078;2022-08-19T08:41:16;11.57;;;6.78;;
20657;SDS011;10488;50.846;4.078;2022-08-19T08:43:53;10.73;;;6.60;;
20657;SDS011;10488;50.846;4.078;2022-08-19T08:46:32;15.32;;;7.70;;
20657;SDS011;10488;50.846;4.078;2022-08-19T08:49:28;15.55;;;7.15;;
20657;SDS011;10488;50.846;4.078;2022-08-19T08:52:07;11.82;;;7.15;;
20657;SDS011;10488;50.846;4.078;2022-08-19T08:54:44;9.10;;;6.75;;
20657;SDS011;10488;50.846;4.078;2022-08-19T08:57:21;14.38;;;7.05;;
20657;SDS011;10488;50.846;4.078;2022-08-19T08:59:53;13.45;;;6.82;;
20657;SDS011;10488;50.846;4.078;2022-08-19T09:02:22;12.63;;;6.70;;
20657;SDS011;10488;50.846;4.078;2022-08-19T09:04:47;8.95;;;7.25;;
20657;SDS011;10488;50.846;4.078;2022-08-19T09:12:54;13.88;;;6.97;;
20657;SDS011;10488;50.846;4.078;2022-08-19T09:18:41;17.23;;;6.75;;
20657;SDS011;10488;50.846;4.078;2022-08-19T09:21:13;16.60;;;8.70;;
20657;SDS011;10488;50.846;4.078;2022-08-19T09:23:39;15.25;;;8.63;;
20657;SDS011;10488;50.846;4.078;2022-08-19T09:26:09;12.52;;;7.60;;
20657;SDS011;10488;50.846;4.078;2022-08-19T09:28:39;12.52;;;7.30;;
20657;SDS011;10488;50.846;4.078;2022-08-19T09:31:08;13.02;;;8.27;;
20657;SDS011;10488;50.846;4.078;2022-08-19T09:33:35;14.45;;;8.05;;
20657;SDS011;10488;50.846;4.078;2022-08-19T09:36:05;12.07;;;7.60;;
20657;SDS011;10488;50.846;4.078;2022-08-19T09:38:33;17.95;;;8.05;;
20657;SDS011;10488;50.846;4.078;2022-08-19T09:41:07;14.60;;;7.28;;
20657;SDS011;10488;50.846;4.078;2022-08-19T09:43:38;17.00;;;8.30;;
20657;SDS011;10488;50.846;4.078;2022-08-19T09:46:05;13.02;;;7.43;;
20657;SDS011;10488;50.846;4.078;2022-08-19T09:48:34;11.30;;;7.00;;
20657;SDS011;10488;50.846;4.078;2022-08-19T09:51:04;10.43;;;6.68;;
20657;SDS011;10488;50.846;4.078;2022-08-19T09:53:31;11.60;;;7.25;;
20657;SDS011;10488;50.846;4.078;2022-08-19T09:55:57;12.63;;;7.00;;
20657;SDS011;10488;50.846;4.078;2022-08-19T09:58:23;14.07;;;6.63;;
20657;SDS011;10488;50.846;4.078;2022-08-19T10:00:53;12.27;;;5.78;;
20657;SDS011;10488;50.846;4.078;2022-08-19T10:03:19;7.00;;;5.10;;
20657;SDS011;10488;50.846;4.078;2022-08-19T10:05:45;6.30;;;4.50;;
20657;SDS011;10488;50.846;4.078;2022-08-19T10:08:15;6.68;;;5.22;;
20657;SDS011;10488;50.846;4.078;2022-08-19T10:10:43;8.77;;;5.07;;
20657;SDS011;10488;50.846;4.078;2022-08-19T10:13:09;7.70;;;5.45;;
20657;SDS011;10488;50.846;4.078;2022-08-19T10:15:36;10.45;;;6.15;;
20657;SDS011;10488;50.846;4.078;2022-08-19T10:18:04;11.32;;;6.82;;
20657;SDS011;10488;50.846;4.078;2022-08-19T10:20:30;11.50;;;6.75;;
20657;SDS011;10488;50.846;4.078;2022-08-19T10:22:56;10.65;;;7.10;;
20657;SDS011;10488;50.846;4.078;2022-08-19T10:25:24;10.32;;;7.28;;
20657;SDS011;10488;50.846;4.078;2022-08-19T10:27:51;10.40;;;6.13;;
20657;SDS011;10488;50.846;4.078;2022-08-19T10:30:16;7.53;;;5.00;;
20657;SDS011;10488;50.846;4.078;2022-08-19T10:32:42;7.55;;;4.85;;
20657;SDS011;10488;50.846;4.078;2022-08-19T10:35:09;9.45;;;4.93;;
20657;SDS011;10488;50.846;4.078;2022-08-19T10:37:36;4.63;;;4.13;;
20657;SDS011;10488;50.846;4.078;2022-08-19T10:40:03;7.15;;;4.57;;
20657;SDS011;10488;50.846;4.078;2022-08-19T10:42:33;5.65;;;4.88;;
20657;SDS011;10488;50.846;4.078;2022-08-19T10:45:00;10.25;;;6.55;;
20657;SDS011;10488;50.846;4.078;2022-08-19T10:47:26;8.55;;;6.50;;
20657;SDS011;10488;50.846;4.078;2022-08-19T10:49:52;14.30;;;6.28;;
20657;SDS011;10488;50.846;4.078;2022-08-19T10:52:38;10.57;;;7.97;;
20657;SDS011;10488;50.846;4.078;2022-08-19T10:55:05;13.65;;;8.40;;
20657;SDS011;10488;50.846;4.078;2022-08-19T10:57:50;12.13;;;8.85;;
20657;SDS011;10488;50.846;4.078;2022-08-19T11:00:18;12.32;;;8.90;;
20657;SDS011;10488;50.846;4.078;2022-08-19T11:02:47;12.82;;;9.18;;
20657;SDS011;10488;50.846;4.078;2022-08-19T11:05:14;11.40;;;9.27;;
20657;SDS011;10488;50.846;4.078;2022-08-19T11:07:41;11.32;;;9.60;;
20657;SDS011;10488;50.846;4.078;2022-08-19T11:10:08;11.80;;;8.93;;
20657;SDS011;10488;50.846;4.078;2022-08-19T11:12:38;10.98;;;9.13;;
20657;SDS011;10488;50.846;4.078;2022-08-19T11:15:08;13.63;;;7.75;;
20657;SDS011;10488;50.846;4.078;2022-08-19T11:17:36;12.27;;;8.27;;
20657;SDS011;10488;50.846;4.078;2022-08-19T11:20:08;8.98;;;7.25;;
20657;SDS011;10488;50.846;4.078;2022-08-19T11:22:35;11.32;;;6.95;;
20657;SDS011;10488;50.846;4.078;2022-08-19T11:25:01;8.77;;;6.15;;
20657;SDS011;10488;50.846;4.078;2022-08-19T11:27:27;9.75;;;5.85;;
20657;SDS011;10488;50.846;4.078;2022-08-19T11:29:53;8.35;;;6.20;;
20657;SDS011;10488;50.846;4.078;2022-08-19T11:32:19;9.60;;;5.47;;
20657;SDS011;10488;50.846;4.078;2022-08-19T11:34:45;6.85;;;5.15;;
20657;SDS011;10488;50.846;4.078;2022-08-19T11:37:10;5.75;;;4.82;;
20657;SDS011;10488;50.846;4.078;2022-08-19T11:39:37;9.75;;;5.05;;
20657;SDS011;10488;50.846;4.078;2022-08-19T11:42:04;6.40;;;4.25;;
20657;SDS011;10488;50.846;4.078;2022-08-19T11:44:51;11.35;;;4.53;;
20657;SDS011;10488;50.846;4.078;2022-08-19T11:47:17;7.18;;;4.22;;
20657;SDS011;10488;50.846;4.078;2022-08-19T11:49:43;6.20;;;4.18;;
20657;SDS011;10488;50.846;4.078;2022-08-19T11:52:08;6.35;;;4.10;;
20657;SDS011;10488;50.846;4.078;2022-08-19T11:54:35;7.72;;;4.65;;
20657;SDS011;10488;50.846;4.078;2022-08-19T11:57:02;7.55;;;3.53;;
20657;SDS011;10488;50.846;4.078;2022-08-19T11:59:29;7.47;;;4.28;;
20657;SDS011;10488;50.846;4.078;2022-08-19T12:01:54;6.82;;;3.75;;
20657;SDS011;10488;50.846;4.078;2022-08-19T12:04:20;5.63;;;3.67;;
20657;SDS011;10488;50.846;4.078;2022-08-19T12:06:46;5.18;;;3.25;;
20657;SDS011;10488;50.846;4.078;2022-08-19T12:09:13;6.07;;;3.22;;
20657;SDS011;10488;50.846;4.078;2022-08-19T12:11:40;5.28;;;3.30;;
20657;SDS011;10488;50.846;4.078;2022-08-19T12:14:06;7.03;;;3.80;;
20657;SDS011;10488;50.846;4.078;2022-08-19T12:16:36;6.55;;;3.17;;
20657;SDS011;10488;50.846;4.078;2022-08-19T12:19:03;4.05;;;3.22;;
20657;SDS011;10488;50.846;4.078;2022-08-19T12:21:30;6.80;;;3.00;;
20657;SDS011;10488;50.846;4.078;2022-08-19T12:23:58;4.03;;;3.05;;
20657;SDS011;10488;50.846;4.078;2022-08-19T12:26:25;5.18;;;3.35;;
20657;SDS011;10488;50.846;4.078;2022-08-19T12:28:51;3.55;;;2.83;;
20657;SDS011;10488;50.846;4.078;2022-08-19T12:31:18;4.55;;;2.63;;
20657;SDS011;10488;50.846;4.078;2022-08-19T12:33:45;3.58;;;2.38;;
20657;SDS011;10488;50.846;4.078;2022-08-19T12:36:11;4.93;;;3.22;;
20657;SDS011;10488;50.846;4.078;2022-08-19T12:38:39;7.10;;;2.75;;
20657;SDS011;10488;50.846;4.078;2022-08-19T12:41:06;3.17;;;2.40;;
20657;SDS011;10488;50.846;4.078;2022-08-19T12:43:35;3.33;;;3.03;;
20657;SDS011;10488;50.846;4.078;2022-08-19T12:46:03;4.80;;;2.40;;
20657;SDS011;10488;50.846;4.078;2022-08-19T12:48:30;1.95;;;1.80;;
20657;SDS011;10488;50.846;4.078;2022-08-19T12:50:57;5.25;;;1.90;;
20657;SDS011;10488;50.846;4.078;2022-08-19T12:53:22;5.55;;;2.33;;
20657;SDS011;10488;50.846;4.078;2022-08-19T12:55:54;5.97;;;2.08;;
20657;SDS011;10488;50.846;4.078;2022-08-19T12:58:21;2.00;;;1.88;;
20657;SDS011;10488;50.846;4.078;2022-08-19T13:00:48;5.05;;;2.03;;
20657;SDS011;10488;50.846;4.078;2022-08-19T13:03:14;4.65;;;2.05;;
20657;SDS011;10488;50.846;4.078;2022-08-19T13:05:40;5.00;;;2.08;;
20657;SDS011;10488;50.846;4.078;2022-08-19T13:08:06;2.35;;;1.83;;
20657;SDS011;10488;50.846;4.078;2022-08-19T13:10:33;6.40;;;1.88;;
20657;SDS011;10488;50.846;4.078;2022-08-19T13:13:00;7.30;;;2.53;;
20657;SDS011;10488;50.846;4.078;2022-08-19T13:15:33;3.90;;;1.60;;
20657;SDS011;10488;50.846;4.078;2022-08-19T13:18:00;5.53;;;2.30;;
20657;SDS011;10488;50.846;4.078;2022-08-19T13:20:26;3.00;;;2.00;;
20657;SDS011;10488;50.846;4.078;2022-08-19T13:22:53;2.28;;;1.80;;
20657;SDS011;10488;50.846;4.078;2022-08-19T13:25:19;2.35;;;2.08;;
20657;SDS011;10488;50.846;4.078;2022-08-19T13:27:46;16.13;;;3.90;;
20657;SDS011;10488;50.846;4.078;2022-08-19T13:30:13;16.90;;;3.97;;
20657;SDS011;10488;50.846;4.078;2022-08-19T13:32:59;14.80;;;3.95;;
20657;SDS011;10488;50.846;4.078;2022-08-19T13:35:43;8.00;;;3.85;;
20657;SDS011;10488;50.846;4.078;2022-08-19T13:38:09;6.75;;;5.18;;
20657;SDS011;10488;50.846;4.078;2022-08-19T13:40:36;4.45;;;4.05;;
20657;SDS011;10488;50.846;4.078;2022-08-19T13:43:03;7.72;;;3.92;;
20657;SDS011;10488;50.846;4.078;2022-08-19T13:45:30;4.93;;;3.85;;
20657;SDS011;10488;50.846;4.078;2022-08-19T13:48:00;5.70;;;4.07;;
20657;SDS011;10488;50.846;4.078;2022-08-19T13:50:32;10.43;;;3.40;;
20657;SDS011;10488;50.846;4.078;2022-08-19T13:52:58;3.40;;;3.10;;
20657;SDS011;10488;50.846;4.078;2022-08-19T13:55:25;5.50;;;3.10;;
20657;SDS011;10488;50.846;4.078;2022-08-19T13:57:52;3.83;;;2.65;;
20657;SDS011;10488;50.846;4.078;2022-08-19T14:00:20;7.30;;;3.13;;
20657;SDS011;10488;50.846;4.078;2022-08-19T14:02:50;4.32;;;2.88;;
20657;SDS011;10488;50.846;4.078;2022-08-19T14:05:17;6.28;;;3.05;;
20657;SDS011;10488;50.846;4.078;2022-08-19T14:07:43;5.80;;;3.13;;
20657;SDS011;10488;50.846;4.078;2022-08-19T14:10:11;5.25;;;3.28;;
20657;SDS011;10488;50.846;4.078;2022-08-19T14:12:38;4.75;;;3.13;;
20657;SDS011;10488;50.846;4.078;2022-08-19T14:15:04;4.45;;;3.25;;
20657;SDS011;10488;50.846;4.078;2022-08-19T14:17:31;6.80;;;3.35;;
20657;SDS011;10488;50.846;4.078;2022-08-19T14:19:57;4.10;;;2.80;;
20657;SDS011;10488;50.846;4.078;2022-08-19T14:22:25;3.95;;;3.17;;
20657;SDS011;10488;50.846;4.078;2022-08-19T14:24:51;4.18;;;3.17;;
20657;SDS011;10488;50.846;4.078;2022-08-19T14:27:17;4.70;;;2.67;;
20657;SDS011;10488;50.846;4.078;2022-08-19T14:29:42;5.82;;;2.75;;
20657;SDS011;10488;50.846;4.078;2022-08-19T14:32:09;4.13;;;2.50;;
20657;SDS011;10488;50.846;4.078;2022-08-19T14:34:35;4.25;;;2.38;;
20657;SDS011;10488;50.846;4.078;2022-08-19T14:37:02;3.15;;;2.33;;
20657;SDS011;10488;50.846;4.078;2022-08-19T14:39:27;4.05;;;1.48;;
20657;SDS011;10488;50.846;4.078;2022-08-19T14:41:53;1.23;;;1.10;;
20657;SDS011;10488;50.846;4.078;2022-08-19T14:44:19;2.58;;;1.42;;
20657;SDS011;10488;50.846;4.078;2022-08-19T14:46:45;3.22;;;1.25;;
20657;SDS011;10488;50.846;4.078;2022-08-19T14:49:10;1.45;;;1.00;;